Time;durP1;ratioP1;P1;durP2;ratioP2;P2;SDS_P1;SDS_P2;PMS_P1;PMS_P2;Temp;Humidity;BMP_temperature;BMP_pressure;BME280_temperature;BME280_humidity;BME280_pressure;Samples;Min_cycle;Max_cycle;Signal;HPM_P1;HPM_P2
2022/03/26 00:02:23;;;;;;;36.85;15.80;;;10.20;56.40;;;;;;5066349;28;20441;-84
2022/03/26 00:04:49;;;;;;;32.75;15.32;;;10.20;56.80;;;;;;5076289;28;20350;-84
2022/03/26 00:07:14;;;;;;;30.38;15.02;;;10.10;57.30;;;;;;5077250;28;20466;-84
2022/03/26 00:09:40;;;;;;;35.42;15.95;;;10.10;57.20;;;;;;5078767;28;20039;-84
2022/03/26 00:12:06;;;;;;;33.78;15.73;;;10.20;56.50;;;;;;5063063;28;20464;-83
2022/03/26 00:14:32;;;;;;;31.52;15.60;;;10.20;56.50;;;;;;5058689;28;20028;-85
2022/03/26 00:16:59;;;;;;;37.33;16.25;;;10.20;56.40;;;;;;5071424;28;20027;-84
2022/03/26 00:19:26;;;;;;;35.58;15.77;;;10.30;56.50;;;;;;5060602;28;20093;-84
2022/03/26 00:21:51;;;;;;;33.22;15.45;;;10.30;56.50;;;;;;5089733;28;20023;-84
2022/03/26 00:24:17;;;;;;;32.83;15.13;;;10.30;57.20;;;;;;5068067;28;20029;-84
2022/03/26 00:26:43;;;;;;;33.95;15.50;;;10.30;57.70;;;;;;5068845;28;20492;-84
2022/03/26 00:29:09;;;;;;;36.70;15.85;;;10.20;57.10;;;;;;5082061;28;20047;-85
2022/03/26 00:31:37;;;;;;;31.83;14.63;;;10.10;57.40;;;;;;5074915;28;20070;-77
2022/03/26 00:34:06;;;;;;;33.10;14.93;;;10.20;57.50;;;;;;5055002;28;20050;-78
2022/03/26 00:36:32;;;;;;;32.30;15.40;;;10.10;57.90;;;;;;5055298;28;20052;-77
2022/03/26 00:38:58;;;;;;;37.72;15.73;;;10.10;57.30;;;;;;5073199;28;20477;-77
2022/03/26 00:41:23;;;;;;;33.85;14.90;;;10.10;57.50;;;;;;5073221;28;20211;-78
2022/03/26 00:43:50;;;;;;;36.00;15.13;;;10.00;57.70;;;;;;5055562;28;20040;-78
2022/03/26 00:46:16;;;;;;;31.83;14.98;;;10.10;57.70;;;;;;5049654;28;20453;-76
2022/03/26 00:48:42;;;;;;;31.10;14.88;;;10.10;57.60;;;;;;5073571;28;20017;-78
2022/03/26 00:51:08;;;;;;;36.20;14.43;;;10.10;57.50;;;;;;5055037;28;20043;-77
2022/03/26 00:53:34;;;;;;;30.08;14.63;;;10.10;57.40;;;;;;5073330;28;20025;-79
2022/03/26 00:55:59;;;;;;;33.22;14.57;;;10.10;57.20;;;;;;5073046;28;20091;-77
2022/03/26 00:58:25;;;;;;;32.58;14.57;;;10.10;57.10;;;;;;5054956;28;20468;-78
2022/03/26 01:00:51;;;;;;;35.33;15.52;;;10.10;57.10;;;;;;5072526;28;20113;-76
2022/03/26 01:03:18;;;;;;;28.13;14.27;;;10.10;57.40;;;;;;5055324;28;20428;-78
2022/03/26 01:05:44;;;;;;;33.55;15.52;;;10.00;57.70;;;;;;5055683;28;20481;-78
2022/03/26 01:08:10;;;;;;;31.85;14.23;;;10.00;58.10;;;;;;5055456;28;20066;-77
2022/03/26 01:10:36;;;;;;;30.92;14.05;;;9.90;57.80;;;;;;5055710;28;20024;-77
2022/03/26 01:13:03;;;;;;;30.55;14.00;;;9.90;59.30;;;;;;5055307;28;20048;-83
2022/03/26 01:15:28;;;;;;;31.40;14.07;;;9.80;58.00;;;;;;5073800;28;20078;-77
2022/03/26 01:17:54;;;;;;;32.13;14.82;;;9.80;58.20;;;;;;5055312;28;20032;-76
2022/03/26 01:20:20;;;;;;;34.08;14.40;;;9.80;58.50;;;;;;5054570;28;20040;-78
2022/03/26 01:22:46;;;;;;;38.65;14.70;;;9.70;58.90;;;;;;5055593;28;20439;-78
2022/03/26 01:25:12;;;;;;;33.13;15.35;;;9.60;60.00;;;;;;5072975;28;20032;-78
2022/03/26 01:27:38;;;;;;;30.02;13.00;;;9.60;60.20;;;;;;5055467;28;20028;-78
2022/03/26 01:30:05;;;;;;;33.80;13.88;;;9.50;60.10;;;;;;5072883;28;20350;-79
2022/03/26 01:32:31;;;;;;;32.58;14.30;;;9.60;60.20;;;;;;5055455;28;20112;-78
2022/03/26 01:34:57;;;;;;;30.92;13.93;;;9.50;59.80;;;;;;5073094;28;20048;-77
2022/03/26 01:37:24;;;;;;;31.83;13.65;;;9.50;59.90;;;;;;5072970;28;20308;-78
2022/03/26 01:39:50;;;;;;;30.60;14.05;;;9.50;59.40;;;;;;5073229;28;20028;-77
2022/03/26 01:42:17;;;;;;;32.20;14.40;;;9.50;59.60;;;;;;5054936;28;20017;-77
2022/03/26 01:44:42;;;;;;;29.75;14.30;;;9.50;59.60;;;;;;5073235;28;20032;-78
2022/03/26 01:47:08;;;;;;;35.58;14.52;;;9.50;59.60;;;;;;5072737;28;20028;-78
2022/03/26 01:49:34;;;;;;;34.80;15.55;;;9.50;59.70;;;;;;5055209;28;20021;-78
2022/03/26 01:52:01;;;;;;;30.30;14.57;;;9.50;59.70;;;;;;5073346;28;20070;-77
2022/03/26 01:54:27;;;;;;;35.42;14.00;;;9.50;60.00;;;;;;5072841;28;20051;-78
2022/03/26 01:56:54;;;;;;;30.52;13.57;;;9.50;60.20;;;;;;5055106;28;20028;-76
2022/03/26 01:59:20;;;;;;;33.88;15.23;;;9.50;60.10;;;;;;5054410;28;20020;-77
2022/03/26 02:01:46;;;;;;;31.90;14.13;;;9.40;60.00;;;;;;5055203;28;20106;-77
2022/03/26 02:04:12;;;;;;;29.23;13.70;;;9.50;60.60;;;;;;5054492;28;20083;-77
2022/03/26 02:06:39;;;;;;;30.10;13.30;;;9.40;60.90;;;;;;5054928;28;20020;-77
2022/03/26 02:09:12;;;;;;;30.48;14.35;;;9.30;61.20;;;;;;5054674;28;20047;-94
2022/03/26 02:11:39;;;;;;;30.88;14.60;;;9.30;61.90;;;;;;5072825;28;20024;-77
2022/03/26 02:14:08;;;;;;;32.50;14.10;;;9.20;61.90;;;;;;5054472;28;20032;-94
2022/03/26 02:16:36;;;;;;;31.83;13.43;;;9.10;62.10;;;;;;5072846;28;20062;-77
2022/03/26 02:19:03;;;;;;;30.13;13.95;;;9.10;61.90;;;;;;5072553;28;20041;-78
2022/03/26 02:21:30;;;;;;;31.20;14.18;;;9.10;62.00;;;;;;5054429;28;20111;-78
2022/03/26 02:23:56;;;;;;;35.67;13.65;;;9.10;62.80;;;;;;5075732;28;20433;-77
2022/03/26 02:26:26;;;;;;;35.90;14.60;;;9.10;62.30;;;;;;5058590;28;20025;-77
2022/03/26 02:28:52;;;;;;;29.80;14.13;;;9.10;62.80;;;;;;5058582;28;20024;-77
2022/03/26 02:31:19;;;;;;;27.90;12.93;;;9.00;63.40;;;;;;5058315;28;20028;-78
2022/03/26 02:33:44;;;;;;;33.42;14.20;;;8.90;63.40;;;;;;5058771;28;20372;-77
2022/03/26 02:36:11;;;;;;;34.10;14.18;;;8.90;63.60;;;;;;5058192;28;20020;-78
2022/03/26 02:38:37;;;;;;;32.63;15.25;;;8.90;63.70;;;;;;5076705;28;20020;-77
2022/03/26 02:41:04;;;;;;;32.45;15.07;;;8.90;64.00;;;;;;5058992;28;20028;-78
2022/03/26 02:43:30;;;;;;;34.17;13.60;;;8.80;64.70;;;;;;5058272;28;20067;-78
2022/03/26 02:45:56;;;;;;;34.65;14.50;;;8.80;65.10;;;;;;5058476;28;20060;-77
2022/03/26 02:48:21;;;;;;;32.50;15.23;;;8.80;65.40;;;;;;5058111;28;20024;-77
2022/03/26 02:50:48;;;;;;;33.15;15.43;;;8.70;66.00;;;;;;5075820;28;20032;-76
2022/03/26 02:53:14;;;;;;;32.97;15.23;;;8.60;66.30;;;;;;5057587;28;20029;-77
2022/03/26 02:55:40;;;;;;;35.83;15.95;;;8.60;66.50;;;;;;5076091;28;20346;-76
2022/03/26 02:58:08;;;;;;;30.75;14.48;;;8.50;67.00;;;;;;5057814;28;20020;-76
2022/03/26 03:00:34;;;;;;;34.75;14.68;;;8.50;68.00;;;;;;5057849;28;20016;-76
2022/03/26 03:03:00;;;;;;;35.33;14.93;;;8.50;67.70;;;;;;5057987;28;20032;-76
2022/03/26 03:05:27;;;;;;;37.13;15.43;;;8.50;68.00;;;;;;5075187;28;20032;-77
2022/03/26 03:07:53;;;;;;;34.97;13.85;;;8.40;68.80;;;;;;5057777;28;20457;-76
2022/03/26 03:10:19;;;;;;;39.55;15.32;;;8.40;69.40;;;;;;5057283;28;20025;-77
2022/03/26 03:12:45;;;;;;;32.28;14.20;;;8.40;69.40;;;;;;5075584;28;20575;-76
2022/03/26 03:15:12;;;;;;;32.55;14.23;;;8.40;69.40;;;;;;5074975;28;20039;-77
2022/03/26 03:17:38;;;;;;;33.17;14.35;;;8.30;69.70;;;;;;5057591;28;20017;-77
2022/03/26 03:20:05;;;;;;;32.55;14.15;;;8.30;69.70;;;;;;5075672;28;20071;-76
2022/03/26 03:22:32;;;;;;;32.75;13.73;;;8.40;69.90;;;;;;5075023;28;20029;-76
2022/03/26 03:24:57;;;;;;;34.88;14.38;;;8.30;70.60;;;;;;5057224;28;20039;-77
2022/03/26 03:27:23;;;;;;;29.52;12.98;;;8.30;70.90;;;;;;5075082;28;20017;-78
2022/03/26 03:29:49;;;;;;;29.75;12.52;;;8.30;71.40;;;;;;5057852;28;20025;-78
2022/03/26 03:32:15;;;;;;;29.52;13.23;;;8.20;71.90;;;;;;5057270;28;20464;-78
2022/03/26 03:34:40;;;;;;;28.10;13.00;;;8.20;72.20;;;;;;5075578;28;20028;-79
2022/03/26 03:37:06;;;;;;;30.10;12.32;;;8.20;72.60;;;;;;5057472;28;20024;-77
2022/03/26 03:39:32;;;;;;;26.10;11.82;;;8.20;73.30;;;;;;5057151;28;20032;-77
2022/03/26 03:41:58;;;;;;;26.58;12.55;;;8.10;73.60;;;;;;5075438;28;20023;-77
2022/03/26 03:44:25;;;;;;;30.10;12.73;;;8.10;74.00;;;;;;5057143;28;20093;-78
2022/03/26 03:46:51;;;;;;;29.35;11.93;;;8.00;73.10;;;;;;5057324;28;20170;-79
2022/03/26 03:49:16;;;;;;;26.83;11.35;;;8.00;72.50;;;;;;5056801;28;20063;-78
2022/03/26 03:51:42;;;;;;;27.90;10.98;;;8.00;73.30;;;;;;5075247;28;20024;-76
2022/03/26 03:54:08;;;;;;;26.52;10.80;;;8.00;73.70;;;;;;5057071;28;20121;-75
2022/03/26 03:56:34;;;;;;;28.70;10.73;;;7.90;74.10;;;;;;5056580;28;20027;-76
2022/03/26 03:59:00;;;;;;;29.30;10.52;;;7.90;74.30;;;;;;5057036;28;20063;-75
2022/03/26 04:01:25;;;;;;;27.95;10.60;;;7.90;74.00;;;;;;5056419;28;20048;-75
2022/03/26 04:03:51;;;;;;;26.98;11.60;;;7.90;74.50;;;;;;5056901;28;20021;-75
2022/03/26 04:06:17;;;;;;;24.92;10.80;;;7.80;74.10;;;;;;5074184;28;20480;-76
2022/03/26 04:08:42;;;;;;;28.45;11.82;;;7.80;74.20;;;;;;5056758;28;20030;-75
2022/03/26 04:11:08;;;;;;;23.05;10.45;;;7.80;74.80;;;;;;5056959;28;20115;-75
2022/03/26 04:13:34;;;;;;;26.35;10.35;;;7.70;74.90;;;;;;5056074;28;20103;-75
2022/03/26 04:16:00;;;;;;;31.33;11.63;;;7.80;74.30;;;;;;5074380;28;20031;-77
2022/03/26 04:18:26;;;;;;;26.10;10.57;;;7.70;73.90;;;;;;5055981;28;20020;-75
2022/03/26 04:20:53;;;;;;;28.85;10.57;;;7.70;74.50;;;;;;5056457;28;20067;-75
2022/03/26 04:23:19;;;;;;;25.88;11.55;;;7.70;75.20;;;;;;5056155;28;20025;-76
2022/03/26 04:25:45;;;;;;;24.95;10.85;;;7.60;75.50;;;;;;5074315;28;20115;-75
2022/03/26 04:28:11;;;;;;;26.92;10.30;;;7.60;75.80;;;;;;5056513;28;20052;-75
2022/03/26 04:30:36;;;;;;;27.20;10.85;;;7.50;76.30;;;;;;5055953;28;20017;-75
2022/03/26 04:33:02;;;;;;;26.90;10.40;;;7.50;76.90;;;;;;5074160;28;20543;-75
2022/03/26 04:35:28;;;;;;;26.48;10.15;;;7.40;77.60;;;;;;5073592;28;20028;-75
2022/03/26 04:37:56;;;;;;;24.05;10.77;;;7.40;77.50;;;;;;5074091;28;20025;-75
2022/03/26 04:40:25;;;;;;;21.77;10.75;;;7.30;77.60;;;;;;5055514;28;20028;-75
2022/03/26 04:42:51;;;;;;;29.75;10.93;;;7.30;77.50;;;;;;5073818;28;20020;-75
2022/03/26 04:45:17;;;;;;;27.23;10.18;;;7.30;78.20;;;;;;5054882;28;20051;-75
2022/03/26 04:47:43;;;;;;;27.90;10.30;;;7.30;79.10;;;;;;5056113;28;20033;-75
2022/03/26 04:50:10;;;;;;;22.00;9.97;;;7.20;78.50;;;;;;5055743;28;20026;-75
2022/03/26 04:52:35;;;;;;;23.30;10.70;;;7.20;79.20;;;;;;5054986;28;20431;-75
2022/03/26 04:55:03;;;;;;;28.27;10.15;;;7.10;78.90;;;;;;5074003;28;20036;-74
2022/03/26 04:57:28;;;;;;;20.70;10.00;;;7.10;78.70;;;;;;5055350;28;20030;-75
2022/03/26 04:59:54;;;;;;;24.45;10.27;;;7.10;80.30;;;;;;5055707;28;20393;-75
2022/03/26 05:02:19;;;;;;;26.60;10.77;;;7.10;79.90;;;;;;5073140;28;20016;-76
2022/03/26 05:04:45;;;;;;;22.40;9.30;;;7.00;80.70;;;;;;5055713;28;20024;-76
2022/03/26 05:09:55;;;;;;;25.43;9.83;;;7.00;80.30;;;;;;5073209;28;20089;-76
2022/03/26 05:12:21;;;;;;;28.20;11.00;;;7.00;80.60;;;;;;5055066;28;20020;-76
2022/03/26 05:14:46;;;;;;;24.48;10.00;;;7.00;81.80;;;;;;5055455;28;20472;-76
2022/03/26 05:17:13;;;;;;;27.50;11.13;;;6.90;82.40;;;;;;5073284;28;20376;-76
2022/03/26 05:19:38;;;;;;;26.13;10.70;;;6.90;81.70;;;;;;5072352;28;20480;-76
2022/03/26 05:22:04;;;;;;;27.20;10.93;;;6.90;81.40;;;;;;5055203;28;20058;-76
2022/03/26 05:24:32;;;;;;;34.35;10.73;;;7.00;81.70;;;;;;5054682;28;20070;-76
2022/03/26 05:26:58;;;;;;;27.97;10.03;;;6.90;81.80;;;;;;5055452;28;20024;-76
2022/03/26 05:29:23;;;;;;;27.03;11.10;;;6.90;82.40;;;;;;5073307;28;20091;-76
2022/03/26 05:31:49;;;;;;;26.73;11.33;;;6.90;82.90;;;;;;5073356;28;20438;-76
2022/03/26 05:34:15;;;;;;;26.83;10.57;;;6.80;83.80;;;;;;5073660;28;20037;-76
2022/03/26 05:36:41;;;;;;;24.60;10.60;;;6.80;84.20;;;;;;5073013;28;20016;-76
2022/03/26 05:39:06;;;;;;;22.53;10.33;;;6.80;84.70;;;;;;5055143;28;20027;-76
2022/03/26 05:41:32;;;;;;;25.27;10.70;;;6.70;85.10;;;;;;5035362;28;20408;-76
2022/03/26 05:44:00;;;;;;;25.53;11.33;;;6.70;85.50;;;;;;5035613;28;20021;-76
2022/03/26 05:46:26;;;;;;;19.67;9.73;;;6.70;86.40;;;;;;5043385;28;20101;-77
2022/03/26 05:48:51;;;;;;;27.63;10.43;;;6.60;86.90;;;;;;5054877;28;20040;-76
2022/03/26 05:51:17;;;;;;;27.10;11.33;;;6.60;87.40;;;;;;5054329;28;20016;-76
2022/03/26 05:53:44;;;;;;;25.90;10.63;;;6.60;86.50;;;;;;5054325;28;20029;-76
2022/03/26 05:56:10;;;;;;;27.03;11.17;;;6.60;87.60;;;;;;5054958;28;20016;-76
2022/03/26 05:58:35;;;;;;;28.13;11.30;;;6.70;87.90;;;;;;5058495;28;20377;-76
2022/03/26 06:01:01;;;;;;;25.10;10.13;;;6.70;86.50;;;;;;5059224;28;20376;-76
2022/03/26 06:03:28;;;;;;;22.17;10.50;;;6.70;85.60;;;;;;5072181;28;20025;-77
2022/03/26 06:05:54;;;;;;;25.73;10.77;;;6.70;85.40;;;;;;5074309;28;20028;-76
2022/03/26 06:08:19;;;;;;;23.27;10.73;;;6.80;85.40;;;;;;5076638;28;20028;-87
2022/03/26 06:10:45;;;;;;;26.57;10.67;;;6.80;85.40;;;;;;5058076;28;20033;-76
2022/03/26 06:13:10;;;;;;;21.10;10.20;;;6.80;86.00;;;;;;5058757;28;20025;-76
2022/03/26 06:15:37;;;;;;;25.50;9.70;;;6.80;87.00;;;;;;5058543;28;20453;-76
2022/03/26 06:18:03;;;;;;;31.10;10.83;;;6.80;86.50;;;;;;5058727;28;20118;-76
2022/03/26 06:20:29;;;;;;;23.67;10.73;;;6.80;88.10;;;;;;5057937;28;20507;-76
2022/03/26 06:22:55;;;;;;;27.43;11.33;;;6.80;88.10;;;;;;5058424;28;20130;-76
2022/03/26 06:25:20;;;;;;;23.67;10.23;;;6.80;87.90;;;;;;5058290;28;20119;-86
2022/03/26 06:27:49;;;;;;;27.73;10.83;;;6.80;88.30;;;;;;5058572;28;20020;-75
2022/03/26 06:30:15;;;;;;;26.07;10.60;;;6.80;88.40;;;;;;5058404;28;20033;-75
2022/03/26 06:32:41;;;;;;;27.97;10.40;;;6.90;88.90;;;;;;5058194;28;20324;-75
2022/03/26 06:35:07;;;;;;;28.90;11.17;;;6.90;88.70;;;;;;5076676;28;20020;-75
2022/03/26 06:37:33;;;;;;;26.73;10.77;;;6.90;88.40;;;;;;5076074;28;20046;-76
2022/03/26 06:39:58;;;;;;;25.93;10.83;;;7.00;88.50;;;;;;5076629;28;20095;-76
2022/03/26 06:42:25;;;;;;;28.10;11.00;;;7.00;88.50;;;;;;5058166;28;20119;-77
2022/03/26 06:44:58;;;;;;;26.10;10.57;;;7.00;89.10;;;;;;5058557;28;20040;-76
2022/03/26 06:47:27;;;;;;;28.13;10.90;;;7.10;88.20;;;;;;5058242;28;20024;-77
2022/03/26 06:49:54;;;;;;;27.83;11.70;;;7.10;88.50;;;;;;5058011;28;20028;-76
2022/03/26 06:52:22;;;;;;;26.20;11.20;;;7.20;89.20;;;;;;5075932;28;20043;-76
2022/03/26 06:54:48;;;;;;;25.75;10.63;;;7.30;89.50;;;;;;5076341;28;20028;-77
2022/03/26 06:57:13;;;;;;;26.73;10.98;;;7.20;88.00;;;;;;5076493;28;20064;-76
2022/03/26 06:59:39;;;;;;;27.37;11.10;;;7.20;87.60;;;;;;5075653;28;20021;-76
2022/03/26 07:02:05;;;;;;;30.10;11.38;;;7.30;87.90;;;;;;5058015;28;20051;-76
2022/03/26 07:04:30;;;;;;;28.27;10.05;;;7.40;87.40;;;;;;5057524;28;20495;-76
2022/03/26 07:06:56;;;;;;;22.45;10.90;;;7.40;86.80;;;;;;5075872;28;20017;-76
2022/03/26 07:09:23;;;;;;;28.38;11.98;;;7.50;86.40;;;;;;5075480;28;20077;-75
2022/03/26 07:11:50;;;;;;;29.45;11.15;;;7.50;86.50;;;;;;5075791;28;20020;-75
2022/03/26 07:14:16;;;;;;;25.15;10.40;;;7.50;86.10;;;;;;5075721;28;20027;-76
2022/03/26 07:16:41;;;;;;;28.30;11.27;;;7.60;86.40;;;;;;5057290;28;20016;-76
2022/03/26 07:19:07;;;;;;;27.03;10.90;;;7.70;86.60;;;;;;5057617;28;20396;-76
2022/03/26 07:21:33;;;;;;;29.65;12.25;;;7.80;86.10;;;;;;5057440;28;20507;-76
2022/03/26 07:23:59;;;;;;;27.80;11.98;;;7.80;86.10;;;;;;5057757;28;20024;-76
2022/03/26 07:26:24;;;;;;;32.47;12.25;;;7.90;85.60;;;;;;5056648;28;20024;-83
2022/03/26 07:28:50;;;;;;;24.98;10.90;;;8.00;85.20;;;;;;5057089;28;20028;-76
2022/03/26 07:31:16;;;;;;;25.88;11.35;;;8.00;85.80;;;;;;5057181;28;20025;-76
2022/03/26 07:33:41;;;;;;;28.17;11.27;;;8.10;84.10;;;;;;5074819;28;20078;-75
2022/03/26 07:36:07;;;;;;;22.95;11.45;;;8.10;83.80;;;;;;5057347;28;20024;-76
2022/03/26 07:38:33;;;;;;;26.90;11.05;;;8.20;83.10;;;;;;5057020;28;20025;-76
2022/03/26 07:40:58;;;;;;;30.67;12.20;;;8.30;82.80;;;;;;5075257;28;20335;-75
2022/03/26 07:43:24;;;;;;;26.90;11.38;;;8.40;82.40;;;;;;5075151;28;20078;-75
2022/03/26 07:45:50;;;;;;;23.60;10.30;;;8.40;82.20;;;;;;5074431;28;20082;-76
2022/03/26 07:48:15;;;;;;;25.52;10.85;;;8.50;81.40;;;;;;5057228;28;20029;-76
2022/03/26 07:50:41;;;;;;;24.48;10.13;;;8.50;80.40;;;;;;5055878;28;20029;-76
2022/03/26 07:53:07;;;;;;;27.30;11.07;;;8.60;80.30;;;;;;5056711;28;20037;-79
2022/03/26 07:55:32;;;;;;;26.55;10.68;;;8.70;78.90;;;;;;5056256;28;20025;-76
2022/03/26 07:57:59;;;;;;;24.85;10.65;;;8.70;78.40;;;;;;5056462;28;20476;-76
2022/03/26 08:00:24;;;;;;;27.25;11.93;;;8.80;78.30;;;;;;5074137;28;20024;-76
2022/03/26 08:02:50;;;;;;;24.17;10.45;;;8.90;77.70;;;;;;5073828;28;20067;-76
2022/03/26 08:05:16;;;;;;;24.73;11.38;;;9.00;77.60;;;;;;5056117;28;20028;-76
2022/03/26 08:07:42;;;;;;;27.52;11.70;;;9.00;77.10;;;;;;5055435;28;20024;-75
2022/03/26 08:10:08;;;;;;;26.33;12.07;;;9.20;77.50;;;;;;5056090;28;20016;-75
2022/03/26 08:12:34;;;;;;;29.52;12.35;;;9.20;75.50;;;;;;5073490;28;20023;-76
2022/03/26 08:15:00;;;;;;;26.65;11.82;;;9.30;75.10;;;;;;5073472;28;20028;-76
2022/03/26 08:17:28;;;;;;;24.73;11.75;;;9.40;76.80;;;;;;5073965;28;20101;-75
2022/03/26 08:19:54;;;;;;;25.33;11.80;;;9.40;75.40;;;;;;5051809;28;20045;-75
2022/03/26 08:22:19;;;;;;;26.33;11.65;;;9.50;76.20;;;;;;5048151;28;20062;-75
2022/03/26 08:24:45;;;;;;;22.33;10.57;;;9.60;75.80;;;;;;5051934;28;20076;-76
2022/03/26 08:27:10;;;;;;;29.58;11.95;;;9.70;76.10;;;;;;5052809;28;20441;-76
2022/03/26 08:29:36;;;;;;;27.10;10.82;;;9.70;75.80;;;;;;5051636;28;20017;-85
2022/03/26 08:32:04;;;;;;;29.48;11.60;;;9.80;76.70;;;;;;5052433;28;20032;-75
2022/03/26 08:34:30;;;;;;;32.08;12.07;;;9.90;75.90;;;;;;5068440;28;20023;-78
2022/03/26 08:36:56;;;;;;;30.08;12.70;;;10.00;73.70;;;;;;5059075;28;20024;-79
2022/03/26 08:39:21;;;;;;;27.00;11.68;;;10.00;74.30;;;;;;5057902;28;20029;-76
2022/03/26 08:41:47;;;;;;;26.77;11.27;;;10.10;76.90;;;;;;5050851;28;20033;-76
2022/03/26 08:44:13;;;;;;;27.67;11.45;;;10.10;74.90;;;;;;5053954;28;20039;-77
2022/03/26 08:46:39;;;;;;;24.42;10.55;;;10.20;75.30;;;;;;5051800;28;20021;-78
2022/03/26 08:49:04;;;;;;;23.48;11.05;;;10.20;75.30;;;;;;5050736;28;20419;-76
2022/03/26 08:51:30;;;;;;;28.55;11.90;;;10.30;75.40;;;;;;5048416;28;20368;-77
2022/03/26 08:53:56;;;;;;;28.90;12.35;;;10.30;74.40;;;;;;5049499;28;20339;-79
2022/03/26 08:56:21;;;;;;;28.58;11.98;;;10.30;74.90;;;;;;5049487;28;20031;-76
2022/03/26 08:58:47;;;;;;;27.05;11.90;;;10.30;74.20;;;;;;5049895;28;20103;-76
2022/03/26 09:01:13;;;;;;;23.13;11.38;;;10.40;73.90;;;;;;5052823;28;20096;-80
2022/03/26 09:03:40;;;;;;;29.75;12.75;;;10.50;73.40;;;;;;5050784;28;20021;-76
2022/03/26 09:06:07;;;;;;;30.08;11.63;;;10.60;71.70;;;;;;5053517;28;20112;-76
2022/03/26 09:08:36;;;;;;;29.80;11.80;;;10.70;72.20;;;;;;5049300;28;20115;-77
2022/03/26 09:11:04;;;;;;;28.45;12.18;;;10.80;72.00;;;;;;5048998;28;20115;-80
2022/03/26 09:13:30;;;;;;;28.73;12.20;;;10.90;71.60;;;;;;5053084;28;20021;-82
2022/03/26 09:15:56;;;;;;;32.13;12.43;;;11.10;73.30;;;;;;5053097;28;20033;-81
2022/03/26 09:18:22;;;;;;;36.05;16.70;;;11.20;71.80;;;;;;5057577;28;20108;-83
2022/03/26 09:20:48;;;;;;;36.28;15.30;;;11.20;70.70;;;;;;5049578;28;20561;-80
2022/03/26 09:23:15;;;;;;;30.63;12.25;;;11.30;72.50;;;;;;5052260;28;20116;-79
2022/03/26 09:25:42;;;;;;;29.05;12.93;;;11.30;70.20;;;;;;5054089;28;20032;-83
2022/03/26 09:28:07;;;;;;;30.63;12.68;;;11.40;69.30;;;;;;5052111;28;20458;-80
2022/03/26 09:30:33;;;;;;;26.63;12.48;;;11.50;67.00;;;;;;5050441;28;20027;-80
2022/03/26 09:32:59;;;;;;;28.58;12.52;;;11.60;66.30;;;;;;5053434;28;20056;-81
2022/03/26 09:35:25;;;;;;;26.77;12.63;;;11.60;66.60;;;;;;5051513;28;20033;-77
2022/03/26 09:37:51;;;;;;;30.13;13.73;;;11.80;66.10;;;;;;5050961;28;20366;-80
2022/03/26 09:40:19;;;;;;;25.90;12.18;;;11.80;65.30;;;;;;5051624;28;20025;-79
2022/03/26 09:42:45;;;;;;;35.40;13.15;;;11.90;65.40;;;;;;5062301;28;20453;-81
2022/03/26 09:45:11;;;;;;;26.98;12.27;;;12.10;67.80;;;;;;5066218;28;20542;-79
2022/03/26 09:47:38;;;;;;;30.88;13.23;;;12.20;68.20;;;;;;5055489;28;20120;-81
2022/03/26 09:50:06;;;;;;;33.70;13.05;;;12.30;65.60;;;;;;5053123;28;20078;-78
2022/03/26 09:52:33;;;;;;;30.75;13.05;;;12.40;66.10;;;;;;5064842;28;20032;-78
2022/03/26 09:54:59;;;;;;;30.50;13.85;;;12.40;64.00;;;;;;5052422;28;20029;-78
2022/03/26 09:57:25;;;;;;;29.17;12.27;;;12.50;63.40;;;;;;5061117;28;20032;-78
2022/03/26 09:59:51;;;;;;;27.80;12.98;;;12.50;66.60;;;;;;5058302;28;20116;-79
2022/03/26 10:02:16;;;;;;;30.23;13.15;;;12.50;65.30;;;;;;5056175;28;20025;-78
2022/03/26 10:04:44;;;;;;;28.77;13.50;;;12.60;65.60;;;;;;5052081;28;20033;-78
2022/03/26 10:07:11;;;;;;;32.38;13.15;;;12.60;66.20;;;;;;5064151;28;20025;-78
2022/03/26 10:09:45;;;;;;;31.83;13.60;;;12.70;66.70;;;;;;5058683;28;20036;-78
2022/03/26 10:12:15;;;;;;;32.60;13.30;;;12.70;63.10;;;;;;5054533;28;20458;-80
2022/03/26 10:14:45;;;;;;;34.22;15.05;;;12.70;63.70;;;;;;5064329;28;20530;-80
2022/03/26 10:17:27;;;;;;;32.83;13.23;;;12.70;64.10;;;;;;5055048;28;20017;-77
2022/03/26 10:20:12;;;;;;;31.83;14.80;;;12.80;63.80;;;;;;5067971;28;20076;-79
2022/03/26 10:22:42;;;;;;;35.65;15.13;;;13.00;60.30;;;;;;5067344;28;20067;-77
2022/03/26 10:25:09;;;;;;;35.13;14.50;;;13.10;60.20;;;;;;5055571;28;20028;-77
2022/03/26 10:27:40;;;;;;;33.00;14.70;;;13.20;59.80;;;;;;5062939;28;20054;-76
2022/03/26 10:30:07;;;;;;;35.95;14.60;;;13.30;60.40;;;;;;5051049;28;20029;-76
2022/03/26 10:32:41;;;;;;;33.15;14.57;;;13.30;60.40;;;;;;5067424;28;20039;-82
2022/03/26 10:35:20;;;;;;;41.20;15.80;;;13.30;61.30;;;;;;5052495;28;20441;-78
2022/03/26 10:37:56;;;;;;;31.95;14.70;;;13.40;59.70;;;;;;5079093;28;20020;-77
2022/03/26 10:40:36;;;;;;;37.38;14.13;;;13.40;59.90;;;;;;5056577;28;20047;-77
2022/03/26 10:43:10;;;;;;;32.08;14.57;;;13.50;59.40;;;;;;5039881;28;20024;-78
2022/03/26 10:45:50;;;;;;;31.35;13.95;;;13.70;60.40;;;;;;5084390;28;20097;-76
2022/03/26 10:48:23;;;;;;;31.73;13.32;;;13.80;61.30;;;;;;5069335;28;20473;-77
2022/03/26 10:50:58;;;;;;;36.17;15.18;;;13.80;59.00;;;;;;5058116;28;20029;-77
2022/03/26 10:53:36;;;;;;;33.83;14.40;;;13.90;58.30;;;;;;5075446;28;20408;-76
2022/03/26 10:56:03;;;;;;;35.83;15.73;;;13.90;58.10;;;;;;5081124;28;20028;-78
2022/03/26 10:58:31;;;;;;;36.70;15.70;;;14.00;60.00;;;;;;5070788;28;20376;-76
2022/03/26 11:00:57;;;;;;;34.85;16.02;;;14.10;58.30;;;;;;5058284;28;20020;-77
2022/03/26 11:03:23;;;;;;;32.05;14.80;;;14.10;58.00;;;;;;5067760;28;20027;-76
2022/03/26 11:05:52;;;;;;;36.00;15.07;;;14.00;59.10;;;;;;5064891;28;20028;-76
2022/03/26 11:08:19;;;;;;;36.13;16.02;;;14.30;59.70;;;;;;5060773;28;20074;-77
2022/03/26 11:10:45;;;;;;;36.42;15.45;;;14.50;59.20;;;;;;5070884;28;20380;-76
2022/03/26 11:13:12;;;;;;;40.40;15.05;;;14.70;57.90;;;;;;5077745;28;20103;-76
2022/03/26 11:15:46;;;;;;;32.70;14.50;;;14.80;57.30;;;;;;5083463;28;20033;-78
2022/03/26 11:18:27;;;;;;;33.90;14.98;;;14.80;56.50;;;;;;5068668;28;20031;-77
2022/03/26 11:21:03;;;;;;;31.33;14.57;;;14.90;56.40;;;;;;5056929;28;20066;-78
2022/03/26 11:23:44;;;;;;;35.03;15.40;;;15.00;53.60;;;;;;5066932;28;20067;-76
2022/03/26 11:26:35;;;;;;;29.50;13.73;;;15.10;54.60;;;;;;5086115;28;20524;-77
2022/03/26 11:29:41;;;;;;;35.63;14.40;;;15.20;53.80;;;;;;5042800;28;20111;-76
2022/03/26 11:32:15;;;;;;;32.75;14.10;;;15.30;54.10;;;;;;5067378;28;20158;-77
2022/03/26 11:34:40;;;;;;;32.63;14.90;;;15.40;54.50;;;;;;5075376;28;20078;-76
2022/03/26 11:37:20;;;;;;;31.30;14.38;;;15.50;51.70;;;;;;5069953;28;20020;-78
2022/03/26 11:39:49;;;;;;;29.92;13.52;;;15.60;52.80;;;;;;5063885;28;20456;-77
2022/03/26 11:42:30;;;;;;;28.58;13.52;;;15.70;54.00;;;;;;5078063;28;20036;-77
2022/03/26 11:51:17;;;;;;;27.77;13.32;;;16.00;49.60;;;;;;5072758;28;20492;-77
2022/03/26 11:53:47;;;;;;;28.42;13.15;;;16.10;52.00;;;;;;5081584;28;20028;-79
2022/03/26 11:56:31;;;;;;;25.85;13.07;;;16.20;51.70;;;;;;5060120;28;20040;-77
2022/03/26 11:59:03;;;;;;;27.27;12.18;;;16.30;52.70;;;;;;5055068;28;20032;-76
2022/03/26 12:01:43;;;;;;;22.88;12.30;;;16.50;50.50;;;;;;5074423;28;20079;-76
2022/03/26 12:04:13;;;;;;;24.85;11.88;;;16.60;49.60;;;;;;5054780;28;20024;-77
2022/03/26 12:06:51;;;;;;;25.88;11.98;;;16.60;48.10;;;;;;5070148;28;20032;-78
2022/03/26 12:09:30;;;;;;;26.83;12.05;;;16.70;48.20;;;;;;5079498;28;20027;-75
2022/03/26 12:12:05;;;;;;;25.73;12.07;;;16.90;49.60;;;;;;5074353;28;20111;-77
2022/03/26 12:14:35;;;;;;;27.00;12.35;;;17.00;47.10;;;;;;5073659;28;20028;-77
2022/03/26 12:17:04;;;;;;;26.33;12.60;;;17.10;48.00;;;;;;5051933;28;20564;-78
2022/03/26 12:19:45;;;;;;;23.85;12.27;;;17.10;45.80;;;;;;5048917;28;20051;-77
2022/03/26 12:22:28;;;;;;;21.80;11.67;;;17.40;47.00;;;;;;5060088;28;20109;-76
2022/03/26 12:25:03;;;;;;;23.67;11.93;;;17.60;46.10;;;;;;5069907;28;20074;-78
2022/03/26 12:27:29;;;;;;;30.05;11.90;;;17.80;46.30;;;;;;5054980;28;20029;-75
2022/03/26 12:29:57;;;;;;;28.80;12.18;;;17.90;45.40;;;;;;5073181;28;20021;-76
2022/03/26 12:32:33;;;;;;;28.02;12.57;;;18.10;46.00;;;;;;5056203;28;20024;-75
2022/03/26 12:35:04;;;;;;;23.33;11.75;;;18.30;44.50;;;;;;5055604;28;20021;-75
2022/03/26 12:37:30;;;;;;;25.23;11.77;;;18.50;44.60;;;;;;5069978;28;20610;-80
2022/03/26 12:39:56;;;;;;;25.17;11.85;;;18.60;43.60;;;;;;5070865;28;20479;-77
2022/03/26 12:42:24;;;;;;;22.27;11.38;;;18.80;44.00;;;;;;5073057;28;20114;-77
2022/03/26 12:44:51;;;;;;;25.08;11.98;;;19.00;43.20;;;;;;5065306;28;20508;-77